createdAt,value
2022-07-30T00:01:45.740Z,94923.72
2022-07-30T00:04:12.392Z,94933.66
2022-07-30T00:06:39.924Z,94925.31
2022-07-30T00:09:06.872Z,94919.97
2022-07-30T00:11:35.455Z,94924.69
2022-07-30T00:14:02.369Z,94922.63
2022-07-30T00:16:29.194Z,94922.00
2022-07-30T00:18:55.847Z,94914.91
2022-07-30T00:21:33.878Z,94909.75
2022-07-30T00:24:04.047Z,94912.72
2022-07-30T00:26:30.839Z,94918.72
2022-07-30T00:28:58.926Z,94917.13
2022-07-30T00:31:25.699Z,94913.97
2022-07-30T00:33:52.440Z,94912.56
2022-07-30T00:36:19.190Z,94915.72
2022-07-30T00:38:45.907Z,94912.72
2022-07-30T00:41:13.158Z,94924.84
2022-07-30T00:43:43.469Z,94917.75
2022-07-30T00:46:11.768Z,94922.28
2022-07-30T00:48:38.626Z,94921.16
2022-07-30T00:51:05.458Z,94926.94
2022-07-30T00:53:32.321Z,94920.91
2022-07-30T00:55:59.415Z,94919.66
2022-07-30T00:58:26.158Z,94919.91
2022-07-30T01:00:53.147Z,94917.06
2022-07-30T01:03:21.564Z,94926.97
2022-07-30T01:05:48.703Z,94917.94
2022-07-30T01:08:15.506Z,94915.72
2022-07-30T01:10:42.230Z,94912.66
2022-07-30T01:13:09.824Z,94918.75
2022-07-30T01:15:38.498Z,94916.88
2022-07-30T01:18:08.089Z,94911.72
2022-07-30T01:20:41.126Z,94915.66
2022-07-30T01:23:15.559Z,94919.28
2022-07-30T01:25:52.945Z,94919.28
2022-07-30T01:28:24.504Z,94915.06
2022-07-30T01:30:52.650Z,94918.03
2022-07-30T01:33:22.681Z,94907.63
2022-07-30T01:35:51.572Z,94905.75
2022-07-30T01:38:22.947Z,94906.03
2022-07-30T01:40:53.198Z,94909.22
2022-07-30T01:43:23.604Z,94906.16
2022-07-30T01:45:52.984Z,94904.09
2022-07-30T01:48:22.063Z,94901.72
2022-07-30T01:50:50.495Z,94909.69
2022-07-30T01:53:21.078Z,94908.84
2022-07-30T01:55:50.249Z,94913.34
2022-07-30T01:58:21.348Z,94911.28
2022-07-30T02:00:55.933Z,94910.00
2022-07-30T02:03:23.774Z,94911.22
2022-07-30T02:05:53.754Z,94903.78
2022-07-30T02:08:29.088Z,94909.72
2022-07-30T02:11:04.686Z,94904.97
2022-07-30T02:13:34.330Z,94909.53
2022-07-30T02:16:09.765Z,94907.03
2022-07-30T02:18:43.741Z,94909.84
2022-07-30T02:21:17.624Z,94906.69
2022-07-30T02:23:46.540Z,94908.75
2022-07-30T02:26:18.589Z,94907.53
2022-07-30T02:28:51.519Z,94906.94
2022-07-30T02:31:23.218Z,94907.44
2022-07-30T02:33:56.503Z,94912.28
2022-07-30T02:36:27.619Z,94909.81
2022-07-30T02:38:56.312Z,94911.38
2022-07-30T02:41:25.162Z,94911.88
2022-07-30T02:43:54.666Z,94913.16
2022-07-30T02:46:24.005Z,94917.13
2022-07-30T02:49:28.196Z,94914.63
2022-07-30T02:51:56.009Z,94916.38
2022-07-30T02:54:24.068Z,94914.22
2022-07-30T02:56:52.993Z,94909.63
2022-07-30T02:59:23.302Z,94920.34
2022-07-30T03:01:52.112Z,94912.94
2022-07-30T03:04:20.933Z,94914.94
2022-07-30T03:06:48.667Z,94922.09
2022-07-30T03:09:16.893Z,94915.94
2022-07-30T03:11:44.698Z,94911.50
2022-07-30T03:14:12.393Z,94915.56
2022-07-30T03:16:44.320Z,94912.88
2022-07-30T03:19:13.586Z,94908.44
2022-07-30T03:21:41.729Z,94913.63
2022-07-30T03:24:11.855Z,94919.56
2022-07-30T03:26:40.231Z,94908.88
2022-07-30T03:29:08.663Z,94909.75
2022-07-30T03:31:40.898Z,94914.16
2022-07-30T03:34:09.221Z,94907.50
2022-07-30T03:36:41.661Z,94915.78
2022-07-30T03:39:08.536Z,94911.78
2022-07-30T03:41:36.514Z,94906.72
2022-07-30T03:44:07.628Z,94911.38
2022-07-30T03:46:37.213Z,94907.22
2022-07-30T03:49:09.894Z,94910.97
2022-07-30T03:51:41.429Z,94914.75
2022-07-30T03:54:13.604Z,94907.34
2022-07-30T03:56:41.193Z,94919.59
2022-07-30T03:59:15.499Z,94914.84
2022-07-30T04:01:43.186Z,94913.78
2022-07-30T04:04:17.003Z,94912.69
2022-07-30T04:06:43.711Z,94916.03
2022-07-30T04:09:13.464Z,94921.69
2022-07-30T04:11:41.954Z,94925.66
2022-07-30T04:14:14.338Z,94925.16
2022-07-30T04:16:47.650Z,94929.22
2022-07-30T04:19:23.099Z,94927.91
2022-07-30T04:21:52.981Z,94937.09
2022-07-30T04:24:21.181Z,94939.66
2022-07-30T04:26:49.189Z,94942.63
2022-07-30T04:29:21.405Z,94940.94
2022-07-30T04:31:52.731Z,94943.13
2022-07-30T04:34:29.876Z,94944.63
2022-07-30T04:36:56.915Z,94938.88
2022-07-30T04:39:23.898Z,94948.69
2022-07-30T04:41:51.180Z,94950.16
2022-07-30T04:44:37.351Z,94952.75
2022-07-30T04:47:42.490Z,94948.91
2022-07-30T04:50:29.621Z,94959.88
2022-07-30T04:52:58.723Z,94958.13
2022-07-30T04:55:32.926Z,94966.22
2022-07-30T04:58:02.793Z,94959.56
2022-07-30T05:00:40.821Z,94969.28
2022-07-30T05:03:13.554Z,94969.97
2022-07-30T05:05:45.906Z,94975.91
2022-07-30T05:08:12.859Z,94969.84
2022-07-30T05:10:40.826Z,94973.41
2022-07-30T05:13:12.187Z,94978.81
2022-07-30T05:15:41.383Z,94972.56
2022-07-30T05:18:11.561Z,94966.44
2022-07-30T05:20:41.882Z,94969.13
2022-07-30T05:23:30.714Z,94974.47
2022-07-30T05:26:27.793Z,94979.59
2022-07-30T05:28:56.904Z,94968.91
2022-07-30T05:31:31.689Z,94983.56
2022-07-30T05:34:03.496Z,94978.22
2022-07-30T05:36:38.542Z,94990.69
2022-07-30T05:39:09.503Z,94983.84
2022-07-30T05:41:59.090Z,94981.03
2022-07-30T05:44:28.829Z,94984.41
2022-07-30T05:46:55.580Z,94987.84
2022-07-30T05:49:22.995Z,94992.31
2022-07-30T05:51:50.962Z,95000.22
2022-07-30T05:54:19.661Z,95007.34
2022-07-30T05:57:05.056Z,94999.66
2022-07-30T05:59:34.197Z,95004.13
2022-07-30T06:02:09.173Z,95008.88
2022-07-30T06:04:53.355Z,95009.88
2022-07-30T06:07:20.820Z,95007.84
2022-07-30T06:09:49.126Z,95019.84
2022-07-30T06:12:15.885Z,95023.81
2022-07-30T06:14:43.238Z,95016.56
2022-07-30T06:17:14.923Z,95027.28
2022-07-30T06:20:03.810Z,95035.78
2022-07-30T06:22:39.079Z,95036.28
2022-07-30T06:25:13.668Z,95046.06
2022-07-30T06:27:45.499Z,95048.63
2022-07-30T06:30:15.763Z,95053.56
2022-07-30T06:32:45.599Z,95051.84
2022-07-30T06:35:18.571Z,95057.06
2022-07-30T06:37:59.339Z,95059.75
2022-07-30T06:40:36.375Z,95057.56
2022-07-30T06:43:16.036Z,95056.00
2022-07-30T06:45:50.391Z,95063.06
2022-07-30T06:48:24.860Z,95067.91
2022-07-30T06:50:53.029Z,95064.78
2022-07-30T06:53:20.069Z,95066.97
2022-07-30T06:56:10.867Z,95078.47
2022-07-30T06:58:46.826Z,95079.09
2022-07-30T07:01:34.000Z,95082.38
2022-07-30T07:04:01.106Z,95085.34
2022-07-30T07:06:27.944Z,95088.03
2022-07-30T07:08:54.799Z,95092.78
2022-07-30T07:11:31.099Z,95098.13
2022-07-30T07:14:04.527Z,95098.13
2022-07-30T07:16:34.687Z,95101.47
2022-07-30T07:20:01.036Z,95099.78
2022-07-30T07:22:03.730Z,95101.84
2022-07-30T07:24:30.952Z,95101.94
2022-07-30T07:27:07.624Z,95102.94
2022-07-30T07:30:01.815Z,95096.03
2022-07-30T07:32:32.379Z,95101.47
2022-07-30T07:34:59.120Z,95099.19
2022-07-30T07:37:26.984Z,95095.03
2022-07-30T07:39:53.737Z,95092.72
2022-07-30T07:42:22.118Z,95086.38
2022-07-30T07:44:50.134Z,95093.47
2022-07-30T07:47:18.010Z,95099.97
2022-07-30T07:49:56.785Z,95087.78
2022-07-30T07:52:23.761Z,95088.59
2022-07-30T07:54:50.583Z,95093.78
2022-07-30T07:57:18.024Z,95088.75
2022-07-30T07:59:48.525Z,95082.53
2022-07-30T08:02:24.139Z,95081.47
2022-07-30T08:04:59.096Z,95081.44
2022-07-30T08:07:42.272Z,95082.78
2022-07-30T08:10:27.334Z,95091.28
2022-07-30T08:13:52.728Z,95090.25
2022-07-30T08:16:35.373Z,95095.00
2022-07-30T08:19:20.741Z,95092.47
2022-07-30T08:21:55.521Z,95088.34
2022-07-30T08:24:22.312Z,95089.44
2022-07-30T08:26:49.117Z,95085.72
2022-07-30T08:29:17.369Z,95082.69
2022-07-30T08:31:46.458Z,95082.06
2022-07-30T08:34:14.031Z,95086.47
2022-07-30T08:36:41.299Z,95083.97
2022-07-30T08:39:08.588Z,95079.81
2022-07-30T08:41:36.749Z,95092.09
2022-07-30T08:44:08.904Z,95090.19
2022-07-30T08:46:42.461Z,95086.44
2022-07-30T08:49:45.705Z,95083.91
2022-07-30T08:52:13.067Z,95087.94
2022-07-30T08:54:43.940Z,95083.44
2022-07-30T08:57:11.976Z,95074.69
2022-07-30T08:59:59.011Z,95080.31
2022-07-30T09:02:30.019Z,95088.31
2022-07-30T09:05:03.066Z,95090.00
2022-07-30T09:07:31.860Z,95086.41
2022-07-30T09:09:59.103Z,95082.94
2022-07-30T09:12:39.288Z,95082.63
2022-07-30T09:15:10.098Z,95082.25
2022-07-30T09:17:51.384Z,95076.38
2022-07-30T09:20:21.032Z,95072.31
2022-07-30T09:22:49.435Z,95073.88
2022-07-30T09:25:36.878Z,95079.72
2022-07-30T09:28:34.368Z,95074.31
2022-07-30T09:31:20.863Z,95070.16
2022-07-30T09:34:23.808Z,95072.00
2022-07-30T09:37:03.504Z,95074.84
2022-07-30T09:39:59.297Z,95066.91
2022-07-30T09:43:04.468Z,95062.91
2022-07-30T09:45:34.877Z,95050.22
2022-07-30T09:48:02.453Z,95063.50
2022-07-30T09:50:30.819Z,95070.69
2022-07-30T09:53:09.132Z,95062.13
2022-07-30T09:55:41.922Z,95068.19
2022-07-30T09:58:12.853Z,95067.63
2022-07-30T10:00:43.828Z,95063.22
2022-07-30T10:03:34.020Z,95057.88
2022-07-30T10:06:34.371Z,95056.66
2022-07-30T10:09:14.050Z,95062.13
2022-07-30T10:11:44.676Z,95064.69
2022-07-30T10:14:12.416Z,95066.97
2022-07-30T10:16:39.465Z,95059.63
2022-07-30T10:19:07.135Z,95062.25
2022-07-30T10:22:00.253Z,95052.38
2022-07-30T10:24:58.135Z,95060.56
2022-07-30T10:27:49.858Z,95059.50
2022-07-30T10:30:28.223Z,95063.91
2022-07-30T10:32:57.699Z,95066.19
2022-07-30T10:35:34.492Z,95057.53
2022-07-30T10:38:09.298Z,95062.06
2022-07-30T10:40:40.478Z,95052.09
2022-07-30T10:43:32.870Z,95060.50
2022-07-30T10:46:10.485Z,95050.69
2022-07-30T10:48:47.364Z,95056.72
2022-07-30T10:51:18.534Z,95056.03
2022-07-30T10:54:01.693Z,95050.19
2022-07-30T10:56:30.024Z,95062.25
2022-07-30T10:59:03.035Z,95060.78
2022-07-30T11:02:08.740Z,95054.41
2022-07-30T11:04:35.692Z,95055.84
2022-07-30T11:07:30.125Z,95056.50
2022-07-30T11:10:05.200Z,95053.72
2022-07-30T11:12:54.734Z,95062.13
2022-07-30T11:15:22.256Z,95059.69
2022-07-30T11:18:12.558Z,95064.28
2022-07-30T11:20:40.671Z,95060.22
2022-07-30T11:23:39.108Z,95063.63
2022-07-30T11:26:07.084Z,95056.59
2022-07-30T11:28:38.175Z,95058.94
2022-07-30T11:31:36.953Z,95067.59
2022-07-30T11:34:27.657Z,95056.63
2022-07-30T11:37:18.353Z,95062.03
2022-07-30T11:40:10.064Z,95067.69
2022-07-30T11:42:38.540Z,95060.75
2022-07-30T11:45:27.174Z,95061.47
2022-07-30T11:47:56.228Z,95058.31
2022-07-30T11:50:25.479Z,95067.50
2022-07-30T11:52:52.974Z,95067.53
2022-07-30T11:55:25.194Z,95073.94
2022-07-30T11:57:52.599Z,95076.00
2022-07-30T12:00:19.645Z,95086.38
2022-07-30T12:05:23.796Z,95074.28
2022-07-30T12:07:50.600Z,95073.59
2022-07-30T12:10:27.009Z,95074.16
2022-07-30T12:13:07.956Z,95078.00
2022-07-30T12:15:37.093Z,95070.84
2022-07-30T12:18:25.282Z,95057.75
2022-07-30T12:20:57.647Z,95060.03
2022-07-30T12:23:27.255Z,95045.75
2022-07-30T12:25:54.317Z,95051.50
2022-07-30T12:28:22.503Z,95059.97
2022-07-30T12:30:49.718Z,95059.81
2022-07-30T12:33:18.120Z,95058.06
2022-07-30T12:35:47.243Z,95055.34
2022-07-30T12:38:15.558Z,95059.81
2022-07-30T12:40:53.468Z,95050.81
2022-07-30T12:43:45.495Z,95051.66
2022-07-30T12:46:15.203Z,95054.97
2022-07-30T12:48:57.876Z,95052.78
2022-07-30T12:51:26.772Z,95056.50
2022-07-30T12:53:55.438Z,95058.53
2022-07-30T12:56:22.729Z,95061.88
2022-07-30T12:58:49.472Z,95056.63
2022-07-30T13:01:17.650Z,95053.72
2022-07-30T13:03:45.573Z,95060.69
2022-07-30T13:06:15.300Z,95048.59
2022-07-30T13:08:47.681Z,95046.19
2022-07-30T13:11:14.846Z,95043.25
2022-07-30T13:13:41.955Z,95043.06
2022-07-30T13:16:08.873Z,95045.28
2022-07-30T13:18:36.473Z,95046.22
2022-07-30T13:21:05.104Z,95045.53
2022-07-30T13:23:33.267Z,95043.44
2022-07-30T13:26:00.063Z,95036.03
2022-07-30T13:28:27.963Z,95033.38
2022-07-30T13:30:56.474Z,95038.19
2022-07-30T13:33:23.210Z,95034.31
2022-07-30T13:35:49.968Z,95048.94
2022-07-30T13:38:16.819Z,95042.72
2022-07-30T13:40:44.989Z,95036.19
2022-07-30T13:43:11.762Z,95030.69
2022-07-30T13:45:38.505Z,95032.38
2022-07-30T13:48:05.514Z,95034.81
2022-07-30T13:50:32.286Z,95028.63
2022-07-30T13:53:02.346Z,95034.09
2022-07-30T13:55:29.650Z,95038.25
2022-07-30T13:57:57.691Z,95027.66
2022-07-30T14:00:24.960Z,95030.59
2022-07-30T14:02:51.748Z,95025.34
2022-07-30T14:05:18.596Z,95020.09
2022-07-30T14:07:45.344Z,95025.69
2022-07-30T14:10:12.033Z,95030.50
2022-07-30T14:12:40.013Z,95029.81
2022-07-30T14:15:09.716Z,95023.69
2022-07-30T14:17:36.497Z,95016.63
2022-07-30T14:20:03.778Z,95019.09
2022-07-30T14:22:30.472Z,95029.53
2022-07-30T14:24:57.192Z,95024.50
2022-07-30T14:27:23.970Z,95023.19
2022-07-30T14:29:50.748Z,95029.50
2022-07-30T14:32:18.807Z,95031.94
2022-07-30T14:34:45.509Z,95035.13
2022-07-30T14:37:16.387Z,95025.25
2022-07-30T14:39:43.153Z,95021.16
2022-07-30T14:42:09.957Z,95021.44
2022-07-30T14:44:36.839Z,95028.78
2022-07-30T14:47:04.545Z,95025.38
2022-07-30T14:49:32.887Z,95021.19
2022-07-30T14:52:00.836Z,95019.97
2022-07-30T14:54:28.046Z,95019.53
2022-07-30T14:56:58.167Z,95012.63
2022-07-30T14:59:27.513Z,95011.75
2022-07-30T15:01:55.186Z,95011.75
2022-07-30T15:04:22.153Z,95007.72
2022-07-30T15:06:50.216Z,95006.41
2022-07-30T15:09:16.893Z,95006.91
2022-07-30T15:12:09.390Z,95007.69
2022-07-30T15:14:30.302Z,95010.06
2022-07-30T15:17:03.557Z,95003.94
2022-07-30T15:19:31.293Z,95007.25
2022-07-30T15:22:02.130Z,95003.16
2022-07-30T15:24:29.576Z,95003.59
2022-07-30T15:26:56.424Z,95000.63
2022-07-30T15:29:24.248Z,95008.91
2022-07-30T15:31:51.196Z,95012.69
2022-07-30T15:34:17.900Z,95017.97
2022-07-30T15:36:44.749Z,95016.38
2022-07-30T15:39:13.458Z,95012.94
2022-07-30T15:41:42.369Z,95006.13
2022-07-30T15:44:09.056Z,95009.34
2022-07-30T15:46:35.767Z,95009.16
2022-07-30T15:49:02.752Z,95011.06
2022-07-30T15:51:31.497Z,95013.97
2022-07-30T15:53:58.011Z,95007.78
2022-07-30T15:56:27.059Z,95022.22
2022-07-30T15:58:53.863Z,95021.53
2022-07-30T16:01:20.677Z,95038.31
2022-07-30T16:03:47.430Z,95044.25
2022-07-30T16:06:14.863Z,95040.53
2022-07-30T16:08:41.587Z,95050.81
2022-07-30T16:11:08.257Z,95058.09
2022-07-30T16:13:39.242Z,95053.69
2022-07-30T16:16:06.014Z,95061.81
2022-07-30T16:18:32.741Z,95067.75
2022-07-30T16:21:01.362Z,95062.25
2022-07-30T16:23:28.201Z,95058.84
2022-07-30T16:26:03.246Z,95057.16
2022-07-30T16:28:30.018Z,95063.22
2022-07-30T16:30:58.467Z,95040.41
2022-07-30T16:33:25.146Z,95043.31
2022-07-30T16:35:51.821Z,95042.06
2022-07-30T16:38:18.830Z,95047.00
2022-07-30T16:40:45.817Z,95043.78
2022-07-30T16:43:12.507Z,95038.03
2022-07-30T16:45:39.482Z,95028.47
2022-07-30T16:48:07.680Z,95035.91
2022-07-30T16:50:34.887Z,95035.41
2022-07-30T16:53:01.757Z,95027.91
2022-07-30T16:55:28.469Z,95031.56
2022-07-30T16:57:55.132Z,95025.59
2022-07-30T17:00:21.822Z,95032.69
2022-07-30T17:02:48.534Z,95030.91
2022-07-30T17:05:16.559Z,95045.97
2022-07-30T17:07:43.539Z,95044.19
2022-07-30T17:10:11.656Z,95050.38
2022-07-30T17:12:38.548Z,95056.09
2022-07-30T17:15:07.647Z,95055.66
2022-07-30T17:17:34.438Z,95063.91
2022-07-30T17:20:02.933Z,95064.34
2022-07-30T17:22:31.191Z,95057.53
2022-07-30T17:24:57.939Z,95058.59
2022-07-30T17:27:26.564Z,95059.72
2022-07-30T17:29:53.307Z,95068.16
2022-07-30T17:32:21.215Z,95070.88
2022-07-30T17:34:48.690Z,95072.56
2022-07-30T17:37:15.977Z,95068.63
2022-07-30T17:40:23.914Z,95072.63
2022-07-30T17:42:30.768Z,95067.66
2022-07-30T17:44:59.406Z,95068.66
2022-07-30T17:47:26.180Z,95064.25
2022-07-30T17:49:53.254Z,95063.22
2022-07-30T17:52:24.542Z,95066.66
2022-07-30T17:54:54.718Z,95067.28
2022-07-30T17:57:21.527Z,95065.97
2022-07-30T17:59:48.291Z,95072.75
2022-07-30T18:02:15.280Z,95057.00
2022-07-30T18:04:41.947Z,95056.16
2022-07-30T18:07:08.763Z,95061.94
2022-07-30T18:09:39.497Z,95065.00
2022-07-30T18:12:08.788Z,95065.97
2022-07-30T18:14:35.571Z,95068.06
2022-07-30T18:17:03.581Z,95073.63
2022-07-30T18:19:30.325Z,95067.78
2022-07-30T18:21:57.519Z,95066.84
2022-07-30T18:24:24.822Z,95065.91
2022-07-30T18:26:51.817Z,95061.81
2022-07-30T18:29:20.949Z,95072.28
2022-07-30T18:31:48.098Z,95074.03
2022-07-30T18:34:15.062Z,95075.16
2022-07-30T18:36:41.898Z,95074.56
2022-07-30T18:39:08.650Z,95071.84
2022-07-30T18:41:35.571Z,95081.19
2022-07-30T18:44:02.581Z,95075.38
2022-07-30T18:46:30.648Z,95079.38
2022-07-30T18:48:59.241Z,95077.97
2022-07-30T18:51:33.654Z,95079.69
2022-07-30T18:54:00.371Z,95081.31
2022-07-30T18:56:27.274Z,95083.66
2022-07-30T18:58:54.034Z,95092.38
2022-07-30T19:01:20.835Z,95091.75
2022-07-30T19:03:48.927Z,95093.00
2022-07-30T19:06:16.122Z,95096.00
2022-07-30T19:08:43.045Z,95100.75
2022-07-30T19:11:09.737Z,95100.13
2022-07-30T19:13:38.227Z,95100.28
2022-07-30T19:16:05.699Z,95093.97
2022-07-30T19:18:32.680Z,95099.50
2022-07-30T19:21:00.868Z,95101.22
2022-07-30T19:23:27.636Z,95102.50
2022-07-30T19:25:55.066Z,95099.34
2022-07-30T19:28:23.473Z,95097.28
2022-07-30T19:30:50.173Z,95105.50
2022-07-30T19:33:17.101Z,95109.16
2022-07-30T19:35:44.256Z,95105.66
2022-07-30T19:38:21.549Z,95111.03
2022-07-30T19:40:48.981Z,95104.53
2022-07-30T19:43:16.263Z,95105.66
2022-07-30T19:45:46.649Z,95109.31
2022-07-30T19:48:14.664Z,95112.47
2022-07-30T19:50:42.003Z,95108.69
2022-07-30T19:53:09.382Z,95111.22
2022-07-30T19:55:37.718Z,95104.22
2022-07-30T19:58:05.255Z,95102.31
2022-07-30T20:00:44.582Z,95101.88
2022-07-30T20:03:21.596Z,95115.97
2022-07-30T20:05:57.503Z,95104.38
2022-07-30T20:08:26.514Z,95117.19
2022-07-30T20:10:57.956Z,95118.94
2022-07-30T20:13:44.625Z,95112.78
2022-07-30T20:16:13.283Z,95122.44
2022-07-30T20:18:40.971Z,95133.78
2022-07-30T20:21:14.001Z,95136.47
2022-07-30T20:23:41.553Z,95121.94
2022-07-30T20:26:12.917Z,95116.72
2022-07-30T20:28:40.536Z,95110.84
2022-07-30T20:31:07.334Z,95119.94
2022-07-30T20:33:36.003Z,95120.69
2022-07-30T20:36:04.954Z,95126.53
2022-07-30T20:38:33.780Z,95123.22
2022-07-30T20:41:03.949Z,95130.16
2022-07-30T20:43:51.719Z,95124.50
2022-07-30T20:46:19.842Z,95127.81
2022-07-30T20:48:46.753Z,95128.69
2022-07-30T20:51:14.020Z,95131.38
2022-07-30T20:53:45.185Z,95128.06
2022-07-30T20:56:13.600Z,95132.00
2022-07-30T20:58:46.057Z,95136.41
2022-07-30T21:01:17.171Z,95135.44
2022-07-30T21:03:47.774Z,95128.78
2022-07-30T21:06:15.705Z,95134.94
2022-07-30T21:08:42.563Z,95133.47
2022-07-30T21:11:09.754Z,95119.13
2022-07-30T21:13:36.822Z,95129.50
2022-07-30T21:16:16.138Z,95136.56
2022-07-30T21:18:49.698Z,95146.03
2022-07-30T21:21:17.649Z,95141.03
2022-07-30T21:23:55.409Z,95144.69
2022-07-30T21:26:23.425Z,95137.91
2022-07-30T21:28:50.378Z,95138.81
2022-07-30T21:31:20.395Z,95140.38
2022-07-30T21:34:07.605Z,95143.47
2022-07-30T21:36:36.057Z,95142.50
2022-07-30T21:39:05.372Z,95153.03
2022-07-30T21:41:40.033Z,95151.44
2022-07-30T21:44:07.753Z,95159.88
2022-07-30T21:46:36.082Z,95159.59
2022-07-30T21:49:06.826Z,95154.91
2022-07-30T21:51:33.952Z,95151.97
2022-07-30T21:54:01.021Z,95155.06
2022-07-30T21:56:27.950Z,95158.56
2022-07-30T21:58:54.683Z,95146.25
2022-07-30T22:01:24.674Z,95154.88
2022-07-30T22:04:01.569Z,95151.53
2022-07-30T22:06:33.633Z,95158.41
2022-07-30T22:09:00.501Z,95155.53
2022-07-30T22:19:56.316Z,95154.78
2022-07-30T22:22:26.021Z,95154.50
2022-07-30T22:24:55.289Z,95158.63
2022-07-30T22:27:24.883Z,95163.31
2022-07-30T22:29:55.745Z,95158.13
2022-07-30T22:32:38.817Z,95169.44
2022-07-30T22:35:07.971Z,95168.78
2022-07-30T22:37:36.875Z,95168.06
2022-07-30T22:40:06.719Z,95168.84
2022-07-30T22:42:34.009Z,95166.09
2022-07-30T22:45:04.995Z,95168.16
2022-07-30T22:47:51.520Z,95158.25
2022-07-30T22:50:21.289Z,95164.88
2022-07-30T22:52:58.442Z,95157.34
2022-07-30T22:55:39.236Z,95163.50
2022-07-30T22:58:05.903Z,95165.69
2022-07-30T23:00:33.531Z,95165.19
2022-07-30T23:03:00.399Z,95159.22
2022-07-30T23:05:31.008Z,95154.66
2022-07-30T23:08:01.965Z,95150.22
2022-07-30T23:10:29.106Z,95159.16
2022-07-30T23:12:56.035Z,95155.78
2022-07-30T23:15:22.954Z,95158.84
2022-07-30T23:17:49.629Z,95151.72
2022-07-30T23:20:20.474Z,95159.06
2022-07-30T23:22:49.375Z,95150.84
2022-07-30T23:25:16.576Z,95143.69
2022-07-30T23:27:43.519Z,95148.66
2022-07-30T23:30:11.436Z,95149.84
2022-07-30T23:32:38.361Z,95144.31
2022-07-30T23:35:06.271Z,95152.22
2022-07-30T23:37:48.637Z,95143.50
2022-07-30T23:40:18.425Z,95147.38
2022-07-30T23:42:45.379Z,95148.16
2022-07-30T23:45:12.112Z,95140.84
2022-07-30T23:48:00.943Z,95147.31
2022-07-30T23:50:26.177Z,95150.78
2022-07-30T23:52:52.889Z,95146.47
2022-07-30T23:55:21.264Z,95147.75
2022-07-30T23:57:48.083Z,95141.13
